Time;durP1;ratioP1;P1;durP2;ratioP2;P2;SDS_P1;SDS_P2;PMS_P1;PMS_P2;Temp;Humidity;BMP_temperature;BMP_pressure;BME280_temperature;BME280_humidity;BME280_pressure;Samples;Min_cycle;Max_cycle;Signal;HPM_P1;HPM_P2
2022/07/25 00:00:35;;;;;;;;;;;;;;;21.97;57.65;99516.91;5054158;28;19924;-61
2022/07/25 00:03:19;;;;;;;;;;;;;;;21.97;57.81;99527.44;5053935;28;20034;-61
2022/07/25 00:06:05;;;;;;;;;;;;;;;21.96;57.80;99515.19;5055428;28;19924;-62
2022/07/25 00:08:49;;;;;;;;;;;;;;;21.97;57.98;99526.59;5055302;28;20280;-62
2022/07/25 00:11:33;;;;;;;;;;;;;;;21.95;58.14;99513.50;5055024;28;19954;-62
2022/07/25 00:14:17;;;;;;;;;;;;;;;21.94;58.11;99509.13;5054943;28;20355;-61
2022/07/25 00:17:01;;;;;;;;;;;;;;;21.92;58.03;99500.41;5055209;28;19923;-60
2022/07/25 00:19:45;;;;;;;;;;;;;;;21.92;57.92;99495.13;5054725;28;20323;-62
2022/07/25 00:22:32;;;;;;;;;;;;;;;21.92;57.95;99478.44;5055099;28;19923;-61
2022/07/25 00:25:18;;;;;;;;;;;;;;;21.92;57.92;99471.41;5054272;28;19924;-61
2022/07/25 00:28:02;;;;;;;;;;;;;;;21.92;58.14;99478.44;5053733;28;19970;-61
2022/07/25 00:30:49;;;;;;;;;;;;;;;21.90;57.86;99471.44;5054630;28;19924;-62
2022/07/25 00:33:35;;;;;;;;;;;;;;;21.90;58.08;99479.34;5053691;28;19923;-61
2022/07/25 00:36:20;;;;;;;;;;;;;;;21.90;57.92;99471.44;5053790;28;19924;-61
2022/07/25 00:39:04;;;;;;;;;;;;;;;21.89;57.88;99464.44;5054678;28;19962;-61
2022/07/25 00:41:48;;;;;;;;;;;;;;;21.89;57.96;99475.00;5054666;28;19978;-61
2022/07/25 00:44:32;;;;;;;;;;;;;;;21.88;57.96;99475.91;5053652;28;20383;-63
2022/07/25 00:47:16;;;;;;;;;;;;;;;21.87;57.88;99471.59;5054391;28;19923;-63
2022/07/25 00:50:05;;;;;;;;;;;;;;;21.87;58.06;99468.94;5053536;28;20422;-61
2022/07/25 00:52:51;;;;;;;;;;;;;;;21.86;57.78;99466.34;5053547;28;19924;-62
2022/07/25 00:55:36;;;;;;;;;;;;;;;21.84;57.95;99455.88;5054077;28;19924;-61
2022/07/25 00:58:22;;;;;;;;;;;;;;;21.83;57.84;99454.16;5054427;28;19924;-61
2022/07/25 01:01:06;;;;;;;;;;;;;;;21.83;57.94;99448.88;5054446;28;19923;-61
2022/07/25 01:03:50;;;;;;;;;;;;;;;21.81;57.94;99442.81;5054583;28;19923;-61
2022/07/25 01:06:34;;;;;;;;;;;;;;;21.79;57.90;99447.28;5053988;28;20016;-61
2022/07/25 01:09:19;;;;;;;;;;;;;;;21.80;57.78;99448.16;5054334;28;19923;-61
2022/07/25 01:12:03;;;;;;;;;;;;;;;21.78;57.91;99435.00;5053063;28;19924;-61
2022/07/25 01:14:47;;;;;;;;;;;;;;;21.78;57.83;99431.53;5052599;28;19925;-62
2022/07/25 01:17:31;;;;;;;;;;;;;;;21.75;57.86;99438.66;5054166;28;20047;-62
2022/07/25 01:20:16;;;;;;;;;;;;;;;21.74;57.79;99423.75;5053118;28;20025;-62
2022/07/25 01:23:00;;;;;;;;;;;;;;;21.75;57.93;99422.81;5053190;28;19924;-62
2022/07/25 01:25:44;;;;;;;;;;;;;;;21.74;57.82;99415.84;5053866;28;19947;-62
2022/07/25 01:28:29;;;;;;;;;;;;;;;21.75;57.87;99424.59;5053050;28;19923;-61
2022/07/25 01:31:13;;;;;;;;;;;;;;;21.74;57.88;99417.59;5054119;28;20069;-61
2022/07/25 01:34:00;;;;;;;;;;;;;;;21.72;57.77;99420.31;5053488;28;20078;-61
2022/07/25 01:36:52;;;;;;;;;;;;;;;21.71;57.65;99409.84;5052962;28;19971;-61
2022/07/25 01:39:39;;;;;;;;;;;;;;;21.71;57.68;99410.66;5052640;28;20322;-63
2022/07/25 01:42:23;;;;;;;;;;;;;;;21.71;57.79;99408.03;5057490;28;19923;-61
2022/07/25 01:45:10;;;;;;;;;;;;;;;21.71;57.89;99412.47;5057006;28;19923;-62
2022/07/25 01:47:57;;;;;;;;;;;;;;;21.70;57.59;99403.69;5056763;28;19927;-61
2022/07/25 01:50:47;;;;;;;;;;;;;;;21.68;57.55;99405.50;5057137;28;20441;-61
2022/07/25 01:53:34;;;;;;;;;;;;;;;21.68;57.69;99402.88;5056776;28;19924;-61
2022/07/25 01:56:23;;;;;;;;;;;;;;;21.68;57.54;99394.97;5057741;28;20375;-61
2022/07/25 01:59:13;;;;;;;;;;;;;;;21.67;57.63;99395.03;5056342;28;19923;-61
2022/07/25 02:01:57;;;;;;;;;;;;;;;21.66;57.67;99394.16;5056243;28;19924;-61
2022/07/25 02:04:41;;;;;;;;;;;;;;;21.65;57.66;99384.53;5057580;28;20031;-63
2022/07/25 02:07:25;;;;;;;;;;;;;;;21.66;57.54;99388.06;5057561;28;19927;-63
2022/07/25 02:10:09;;;;;;;;;;;;;;;21.64;57.47;99382.84;5057569;28;19923;-61
2022/07/25 02:12:53;;;;;;;;;;;;;;;21.64;57.53;99382.84;5056089;28;19923;-61
2022/07/25 02:15:37;;;;;;;;;;;;;;;21.64;57.49;99374.06;5057290;28;20335;-61
2022/07/25 02:18:21;;;;;;;;;;;;;;;21.63;57.52;99372.34;5056215;28;19939;-61
2022/07/25 02:21:06;;;;;;;;;;;;;;;21.64;57.44;99374.06;5057143;28;19986;-62
2022/07/25 02:23:49;;;;;;;;;;;;;;;21.63;57.52;99361.81;5056264;28;20390;-62
2022/07/25 02:26:33;;;;;;;;;;;;;;;21.63;57.56;99359.16;5057364;28;19924;-62
2022/07/25 02:29:17;;;;;;;;;;;;;;;21.61;57.49;99356.59;5056848;28;19970;-62
2022/07/25 02:32:04;;;;;;;;;;;;;;;21.61;57.62;99356.59;5056830;28;19962;-61
2022/07/25 02:34:51;;;;;;;;;;;;;;;21.59;57.48;99351.34;5056722;28;19923;-63
2022/07/25 02:37:35;;;;;;;;;;;;;;;21.59;57.44;99353.13;5056790;28;20005;-62
2022/07/25 02:40:22;;;;;;;;;;;;;;;21.58;57.49;99343.50;5056941;28;20405;-62
2022/07/25 02:43:06;;;;;;;;;;;;;;;21.58;57.47;99343.50;5056991;28;20343;-62
2022/07/25 02:45:50;;;;;;;;;;;;;;;21.56;57.37;99333.03;5055704;28;19959;-61
2022/07/25 02:48:34;;;;;;;;;;;;;;;21.55;57.43;99331.31;5056035;28;19959;-62
2022/07/25 02:51:21;;;;;;;;;;;;;;;21.55;57.51;99331.31;5056267;28;20291;-60
2022/07/25 02:54:05;;;;;;;;;;;;;;;21.55;57.43;99331.31;5056447;28;19927;-62
2022/07/25 02:56:49;;;;;;;;;;;;;;;21.56;57.43;99330.41;5055342;28;19923;-62
2022/07/25 02:59:33;;;;;;;;;;;;;;;21.56;57.55;99329.53;5056474;28;19923;-61
2022/07/25 03:02:17;;;;;;;;;;;;;;;21.56;57.54;99330.41;5056490;28;20013;-62
2022/07/25 03:05:01;;;;;;;;;;;;;;;21.56;57.47;99335.69;5055635;28;19924;-62
2022/07/25 03:07:45;;;;;;;;;;;;;;;21.56;57.44;99326.91;5055248;28;19927;-62
2022/07/25 03:10:29;;;;;;;;;;;;;;;21.57;57.37;99321.53;5055400;28;19924;-61
2022/07/25 03:13:16;;;;;;;;;;;;;;;21.55;57.34;99312.88;5056592;28;19923;-61
2022/07/25 03:16:00;;;;;;;;;;;;;;;21.55;57.37;99309.34;5055800;28;19923;-61
2022/07/25 03:18:44;;;;;;;;;;;;;;;21.55;57.35;99309.34;5055933;28;19924;-61
2022/07/25 03:21:27;;;;;;;;;;;;;;;21.54;57.31;99305.00;5055216;28;20272;-61
2022/07/25 03:24:11;;;;;;;;;;;;;;;21.56;57.49;99313.72;5056286;28;19970;-62
2022/07/25 03:26:58;;;;;;;;;;;;;;;21.55;57.39;99307.59;5055747;28;20063;-61
2022/07/25 03:29:42;;;;;;;;;;;;;;;21.56;57.43;99311.06;5055081;28;19924;-63
2022/07/25 03:32:26;;;;;;;;;;;;;;;21.55;57.45;99304.97;5055640;28;19924;-61
2022/07/25 03:35:14;;;;;;;;;;;;;;;21.55;57.35;99310.22;5055737;28;19963;-60
2022/07/25 03:37:58;;;;;;;;;;;;;;;21.54;57.38;99291.81;5054963;28;19963;-61
2022/07/25 03:40:44;;;;;;;;;;;;;;;21.56;57.67;99290.88;5055966;28;19974;-61
2022/07/25 03:43:29;;;;;;;;;;;;;;;21.55;57.58;99297.06;5055777;28;19970;-60
2022/07/25 03:46:13;;;;;;;;;;;;;;;21.55;57.54;99297.06;5055888;28;19923;-60
2022/07/25 03:49:00;;;;;;;;;;;;;;;21.55;57.45;99294.41;5055302;28;20394;-61
2022/07/25 03:51:44;;;;;;;;;;;;;;;21.54;57.46;99302.38;5055633;28;19923;-61
2022/07/25 03:54:30;;;;;;;;;;;;;;;21.53;57.39;99288.34;5055492;28;19923;-61
2022/07/25 03:57:14;;;;;;;;;;;;;;;21.53;57.50;99288.34;5055425;28;19923;-61
2022/07/25 03:59:58;;;;;;;;;;;;;;;21.53;57.46;99282.19;5054561;28;19924;-62
2022/07/25 04:02:42;;;;;;;;;;;;;;;21.53;57.39;99280.44;5054658;28;19927;-60
2022/07/25 04:05:26;;;;;;;;;;;;;;;21.53;57.44;99279.56;5054724;28;19974;-61
2022/07/25 04:08:10;;;;;;;;;;;;;;;21.53;57.63;99276.94;5053969;28;19978;-61
2022/07/25 04:10:54;;;;;;;;;;;;;;;21.53;57.59;99275.16;5055298;28;20438;-62
2022/07/25 04:13:38;;;;;;;;;;;;;;;21.52;57.53;99284.00;5054637;28;20055;-61
2022/07/25 04:16:22;;;;;;;;;;;;;;;21.53;57.17;99288.34;5055068;28;19924;-61
2022/07/25 04:19:06;;;;;;;;;;;;;;;21.52;57.37;99278.72;5054052;28;19923;-62
2022/07/25 04:21:56;;;;;;;;;;;;;;;21.52;57.44;99273.44;5054365;28;19963;-61
2022/07/25 04:24:45;;;;;;;;;;;;;;;21.53;57.40;99277.81;5053937;28;19923;-61
2022/07/25 04:27:32;;;;;;;;;;;;;;;21.54;57.56;99273.38;5053943;28;20322;-61
2022/07/25 04:30:16;;;;;;;;;;;;;;;21.54;57.51;99268.97;5054000;28;19923;-61
2022/07/25 04:33:00;;;;;;;;;;;;;;;21.53;57.57;99264.63;5053987;28;20387;-61
2022/07/25 04:35:46;;;;;;;;;;;;;;;21.53;57.62;99259.34;5054701;28;19978;-61
2022/07/25 04:38:31;;;;;;;;;;;;;;;21.53;57.75;99264.63;5053861;28;19923;-61
2022/07/25 04:41:14;;;;;;;;;;;;;;;21.53;57.62;99240.91;5054332;28;19928;-61
2022/07/25 04:43:58;;;;;;;;;;;;;;;21.52;57.57;99252.38;5053595;28;20335;-61
2022/07/25 04:46:45;;;;;;;;;;;;;;;21.53;57.53;99243.53;5054722;28;19928;-61
2022/07/25 04:49:29;;;;;;;;;;;;;;;21.53;57.68;99251.44;5054228;28;19924;-61
2022/07/25 04:52:16;;;;;;;;;;;;;;;21.53;57.58;99243.53;5054293;28;19962;-61
2022/07/25 04:55:03;;;;;;;;;;;;;;;21.52;57.45;99248.84;5054196;28;19971;-61
2022/07/25 04:57:46;;;;;;;;;;;;;;;21.52;57.44;99233.91;5053053;28;20272;-61
2022/07/25 05:00:31;;;;;;;;;;;;;;;21.53;57.55;99233.00;5053647;28;19951;-62
2022/07/25 05:03:17;;;;;;;;;;;;;;;21.53;57.75;99235.63;5054001;28;19959;-61
2022/07/25 05:06:01;;;;;;;;;;;;;;;21.53;57.55;99243.53;5053331;28;19989;-61
2022/07/25 05:08:44;;;;;;;;;;;;;;;21.54;57.65;99236.47;5053350;28;20296;-61
2022/07/25 05:11:28;;;;;;;;;;;;;;;21.54;57.49;99237.34;5054367;28;19923;-61
2022/07/25 05:14:12;;;;;;;;;;;;;;;21.55;57.52;99230.28;5053985;28;19970;-60
2022/07/25 05:16:56;;;;;;;;;;;;;;;21.55;57.71;99246.09;5053893;28;19923;-63
2022/07/25 05:19:40;;;;;;;;;;;;;;;21.55;57.58;99236.44;5052976;28;19924;-62
2022/07/25 05:22:24;;;;;;;;;;;;;;;21.56;57.50;99238.13;5053851;28;19939;-62
2022/07/25 05:25:10;;;;;;;;;;;;;;;21.56;57.64;99245.16;5052911;28;19924;-63
2022/07/25 05:27:57;;;;;;;;;;;;;;;21.56;57.55;99242.53;5053476;28;20446;-62
2022/07/25 05:30:41;;;;;;;;;;;;;;;21.57;57.62;99249.53;5053171;28;19923;-62
2022/07/25 05:33:25;;;;;;;;;;;;;;;21.57;57.58;99241.63;5053308;28;19970;-62
2022/07/25 05:36:09;;;;;;;;;;;;;;;21.57;57.59;99244.25;5052916;28;19924;-62
2022/07/25 05:38:53;;;;;;;;;;;;;;;21.59;57.70;99250.31;5053960;28;19962;-62
2022/07/25 05:41:37;;;;;;;;;;;;;;;21.60;57.64;99247.63;5054278;28;19979;-61
2022/07/25 05:44:21;;;;;;;;;;;;;;;21.59;57.53;99243.25;5053047;28;19975;-61
2022/07/25 05:47:08;;;;;;;;;;;;;;;21.61;57.44;99280.16;5053531;28;19943;-62
2022/07/25 05:49:52;;;;;;;;;;;;;;;21.62;57.58;99270.44;5053570;28;19978;-62
2022/07/25 05:52:39;;;;;;;;;;;;;;;21.63;57.55;99266.91;5052455;28;19924;-62
2022/07/25 05:55:23;;;;;;;;;;;;;;;21.61;57.70;99298.59;5053354;28;19962;-62
2022/07/25 05:58:08;;;;;;;;;;;;;;;21.62;57.70;99271.31;5052855;28;19970;-62
2022/07/25 06:00:52;;;;;;;;;;;;;;;21.64;57.76;99281.78;5052691;28;19923;-61
2022/07/25 06:03:36;;;;;;;;;;;;;;;21.64;57.69;99290.56;5053433;28;20280;-62
2022/07/25 06:06:20;;;;;;;;;;;;;;;21.64;57.75;99282.66;5052810;28;19924;-62
2022/07/25 06:09:04;;;;;;;;;;;;;;;21.64;57.77;99287.94;5053355;28;19940;-62
2022/07/25 06:11:48;;;;;;;;;;;;;;;21.64;57.69;99281.78;5053620;28;19978;-60
2022/07/25 06:14:32;;;;;;;;;;;;;;;21.65;57.80;99283.50;5053535;28;19924;-62
2022/07/25 06:17:16;;;;;;;;;;;;;;;21.66;57.87;99279.94;5053740;28;20377;-61
2022/07/25 06:20:00;;;;;;;;;;;;;;;21.66;57.80;99285.22;5053530;28;19924;-62
2022/07/25 06:22:44;;;;;;;;;;;;;;;21.67;57.78;99287.78;5052608;28;19924;-62
2022/07/25 06:25:28;;;;;;;;;;;;;;;21.67;57.98;99281.66;5053241;28;20386;-62
2022/07/25 06:28:13;;;;;;;;;;;;;;;21.69;57.92;99290.38;5056461;28;19923;-62
2022/07/25 06:30:57;;;;;;;;;;;;;;;21.68;58.01;99286.03;5056182;28;20386;-63
2022/07/25 06:33:41;;;;;;;;;;;;;;;21.70;57.98;99297.38;5057031;28;19997;-63
2022/07/25 06:36:25;;;;;;;;;;;;;;;21.69;57.87;99296.50;5057022;28;19970;-61
2022/07/25 06:39:08;;;;;;;;;;;;;;;21.72;57.95;99300.81;5056150;28;20338;-61
2022/07/25 06:41:57;;;;;;;;;;;;;;;21.71;57.86;99302.56;5057163;28;19923;-62
2022/07/25 06:44:41;;;;;;;;;;;;;;;21.70;57.99;99303.47;5055823;28;19923;-62
2022/07/25 06:47:25;;;;;;;;;;;;;;;21.70;57.89;99314.03;5055508;28;20307;-62
2022/07/25 06:50:10;;;;;;;;;;;;;;;21.70;57.90;99311.38;5056735;28;20005;-62
2022/07/25 06:52:54;;;;;;;;;;;;;;;21.71;58.02;99315.75;5055442;28;20078;-61
2022/07/25 06:55:38;;;;;;;;;;;;;;;21.70;58.18;99314.03;5056337;28;19971;-63
2022/07/25 06:58:22;;;;;;;;;;;;;;;21.70;58.00;99319.31;5056437;28;20421;-60
2022/07/25 07:01:06;;;;;;;;;;;;;;;21.69;58.11;99322.84;5056846;28;19924;-61
2022/07/25 07:03:52;;;;;;;;;;;;;;;21.70;57.98;99315.81;5056687;28;19927;-61
2022/07/25 07:06:39;;;;;;;;;;;;;;;21.71;58.24;99312.25;5056449;28;20012;-62
2022/07/25 07:09:23;;;;;;;;;;;;;;;21.71;58.18;99310.47;5055259;28;19923;-61
2022/07/25 07:12:08;;;;;;;;;;;;;;;21.72;58.18;99303.44;5056093;28;20296;-62
2022/07/25 07:14:51;;;;;;;;;;;;;;;21.73;58.13;99313.91;5055110;28;19923;-62
2022/07/25 07:17:35;;;;;;;;;;;;;;;21.74;58.17;99320.03;5055338;28;19928;-62
2022/07/25 07:20:19;;;;;;;;;;;;;;;21.74;58.11;99333.22;5055922;28;19939;-62
2022/07/25 07:23:03;;;;;;;;;;;;;;;21.73;58.16;99328.84;5056319;28;19923;-62
2022/07/25 07:25:49;;;;;;;;;;;;;;;21.70;58.07;99329.00;5055986;28;19963;-62
2022/07/25 07:28:33;;;;;;;;;;;;;;;21.68;58.02;99333.47;5054813;28;19923;-62
2022/07/25 07:31:20;;;;;;;;;;;;;;;21.66;58.01;99325.63;5055885;28;19923;-62
2022/07/25 07:34:04;;;;;;;;;;;;;;;21.65;57.94;99325.69;5055926;28;19978;-62
2022/07/25 07:36:48;;;;;;;;;;;;;;;21.60;58.03;99321.47;5055535;28;19924;-62
2022/07/25 07:39:35;;;;;;;;;;;;;;;21.60;57.90;99328.53;5055818;28;19923;-62
2022/07/25 07:42:19;;;;;;;;;;;;;;;21.61;58.05;99327.59;5054533;28;19970;-63
2022/07/25 07:45:08;;;;;;;;;;;;;;;21.62;58.02;99339.88;5055688;28;19928;-62
2022/07/25 07:47:53;;;;;;;;;;;;;;;21.62;58.05;99331.97;5055292;28;19923;-61
2022/07/25 07:50:40;;;;;;;;;;;;;;;21.62;57.92;99336.34;5054428;28;20409;-61
2022/07/25 07:56:29;;;;;;;;;;;;;;;21.61;58.00;99332.88;5055163;28;19970;-62
2022/07/25 07:59:13;;;;;;;;;;;;;;;21.61;57.86;99324.97;5055096;28;20030;-62
2022/07/25 08:02:00;;;;;;;;;;;;;;;21.62;58.08;99325.81;5055165;28;19947;-62
2022/07/25 08:04:44;;;;;;;;;;;;;;;21.60;57.86;99315.34;5053966;28;19967;-61
2022/07/25 08:07:28;;;;;;;;;;;;;;;21.60;57.85;99321.47;5055114;28;19923;-60
2022/07/25 08:10:12;;;;;;;;;;;;;;;21.61;57.96;99332.88;5054144;28;19924;-62
2022/07/25 08:12:56;;;;;;;;;;;;;;;21.61;57.90;99335.50;5055418;28;19993;-62
2022/07/25 08:15:41;;;;;;;;;;;;;;;21.61;57.84;99332.88;5054986;28;19924;-62
2022/07/25 08:18:28;;;;;;;;;;;;;;;21.62;57.73;99336.34;5054500;28;19927;-62
2022/07/25 08:21:12;;;;;;;;;;;;;;;21.62;57.73;99346.91;5054380;28;19923;-62
2022/07/25 08:24:01;;;;;;;;;;;;;;;21.63;57.69;99338.94;5054695;28;19963;-61
2022/07/25 08:26:45;;;;;;;;;;;;;;;21.62;57.70;99333.72;5054315;28;20382;-62
2022/07/25 08:29:29;;;;;;;;;;;;;;;21.60;57.68;99334.63;5054780;28;20007;-61
2022/07/25 08:32:13;;;;;;;;;;;;;;;21.60;57.57;99347.81;5054865;28;19924;-61
2022/07/25 08:34:58;;;;;;;;;;;;;;;21.60;57.68;99349.63;5053540;28;20271;-60
2022/07/25 08:37:43;;;;;;;;;;;;;;;21.63;57.66;99349.50;5053123;28;19921;-60
2022/07/25 08:40:30;;;;;;;;;;;;;;;21.63;57.59;99338.06;5053780;28;20445;-62
2022/07/25 08:43:18;;;;;;;;;;;;;;;21.64;57.71;99351.22;5054776;28;19923;-61
2022/07/25 08:46:05;;;;;;;;;;;;;;;21.65;57.62;99358.19;5053560;28;20387;-60
2022/07/25 08:48:50;;;;;;;;;;;;;;;21.66;57.64;99356.41;5053862;28;19924;-61
2022/07/25 08:51:38;;;;;;;;;;;;;;;21.66;57.46;99353.78;5053440;28;19947;-62
2022/07/25 08:54:22;;;;;;;;;;;;;;;21.66;57.66;99362.53;5054053;28;19923;-62
2022/07/25 08:57:06;;;;;;;;;;;;;;;21.67;57.53;99358.97;5054255;28;20437;-62
2022/07/25 08:59:50;;;;;;;;;;;;;;;21.68;57.66;99358.06;5054487;28;19970;-62
2022/07/25 09:02:34;;;;;;;;;;;;;;;21.71;57.49;99362.38;5053695;28;20354;-63
2022/07/25 09:05:19;;;;;;;;;;;;;;;21.73;57.63;99368.41;5053980;28;19923;-62
2022/07/25 09:08:08;;;;;;;;;;;;;;;21.75;57.57;99371.84;5054054;28;20001;-61
2022/07/25 09:10:55;;;;;;;;;;;;;;;21.76;57.66;99360.38;5053409;28;20440;-61
2022/07/25 09:13:39;;;;;;;;;;;;;;;21.77;57.61;99362.09;5053103;28;19962;-62
2022/07/25 09:16:33;;;;;;;;;;;;;;;21.81;57.69;99370.72;5054148;28;20019;-61
2022/07/25 09:19:21;;;;;;;;;;;;;;;21.84;57.50;99379.41;5052516;28;19923;-63
2022/07/25 09:22:06;;;;;;;;;;;;;;;21.84;57.58;99370.59;5053237;28;19928;-60
2022/07/25 09:24:53;;;;;;;;;;;;;;;21.85;57.59;99377.59;5053091;28;20283;-60
2022/07/25 09:27:37;;;;;;;;;;;;;;;21.87;57.54;99370.50;5053666;28;19923;-62
2022/07/25 09:30:21;;;;;;;;;;;;;;;21.88;57.66;99383.59;5053316;28;20279;-60
2022/07/25 09:33:05;;;;;;;;;;;;;;;21.90;57.66;99388.84;5053850;28;20284;-60
2022/07/25 09:35:50;;;;;;;;;;;;;;;21.92;57.49;99388.75;5054007;28;20338;-60
2022/07/25 09:38:34;;;;;;;;;;;;;;;21.93;57.53;99385.19;5053799;28;19962;-60
2022/07/25 09:41:20;;;;;;;;;;;;;;;21.95;57.56;99384.22;5053890;28;19924;-61
2022/07/25 09:44:17;;;;;;;;;;;;;;;21.97;57.74;99386.78;5053971;28;19932;-61
2022/07/25 09:47:11;;;;;;;;;;;;;;;21.99;57.52;99380.53;5053696;28;19924;-60
2022/07/25 09:49:58;;;;;;;;;;;;;;;22.01;57.61;99388.38;5053634;28;20035;-60
2022/07/25 09:52:43;;;;;;;;;;;;;;;22.02;57.51;99385.69;5052718;28;20445;-61
2022/07/25 09:55:28;;;;;;;;;;;;;;;22.04;57.54;99401.44;5052554;28;20406;-61
2022/07/25 09:58:12;;;;;;;;;;;;;;;22.07;57.56;99396.03;5052993;28;20010;-61
2022/07/25 10:00:59;;;;;;;;;;;;;;;22.08;57.76;99395.09;5053834;28;19923;-61
2022/07/25 10:03:51;;;;;;;;;;;;;;;22.09;57.57;99394.19;5057731;28;20424;-62
2022/07/25 10:06:35;;;;;;;;;;;;;;;22.11;57.66;99389.72;5057768;28;20068;-61
2022/07/25 10:09:21;;;;;;;;;;;;;;;22.13;57.78;99390.50;5057936;28;19939;-60
2022/07/25 10:12:07;;;;;;;;;;;;;;;22.14;57.66;99396.63;5056656;28;19970;-61
2022/07/25 10:15:05;;;;;;;;;;;;;;;22.16;57.63;99395.66;5057216;28;19924;-60
2022/07/25 10:18:00;;;;;;;;;;;;;;;22.17;57.65;99394.75;5057347;28;20280;-61
2022/07/25 10:20:46;;;;;;;;;;;;;;;22.18;57.77;99383.25;5057576;28;19923;-60
2022/07/25 10:23:30;;;;;;;;;;;;;;;22.20;57.83;99381.38;5056395;28;19924;-60
2022/07/25 10:26:18;;;;;;;;;;;;;;;22.23;57.74;99382.19;5057242;28;19943;-61
2022/07/25 10:29:06;;;;;;;;;;;;;;;22.24;57.83;99382.13;5056344;28;19923;-60
2022/07/25 10:31:50;;;;;;;;;;;;;;;22.26;57.75;99385.56;5056959;28;20445;-59
2022/07/25 10:34:35;;;;;;;;;;;;;;;22.28;57.90;99393.41;5057085;28;19923;-62
2022/07/25 10:37:25;;;;;;;;;;;;;;;22.29;57.89;99382.78;5056790;28;19923;-62
2022/07/25 10:40:10;;;;;;;;;;;;;;;22.31;57.78;99391.50;5055904;28;19924;-62
2022/07/25 10:43:01;;;;;;;;;;;;;;;22.33;57.97;99391.44;5056614;28;20376;-62
2022/07/25 10:45:50;;;;;;;;;;;;;;;22.32;57.91;99390.56;5056067;28;19962;-62
2022/07/25 10:48:36;;;;;;;;;;;;;;;22.35;57.82;99397.50;5056700;28;19962;-61
2022/07/25 10:51:25;;;;;;;;;;;;;;;22.36;57.88;99397.44;5055643;28;20075;-61
2022/07/25 10:54:13;;;;;;;;;;;;;;;22.37;57.88;99398.28;5055579;28;19923;-61
2022/07/25 10:57:00;;;;;;;;;;;;;;;22.38;57.95;99400.00;5056848;28;19924;-61
2022/07/25 10:59:45;;;;;;;;;;;;;;;22.39;57.86;99404.34;5055548;28;19971;-61
2022/07/25 11:02:29;;;;;;;;;;;;;;;22.40;58.00;99402.59;5055066;28;19932;-61
2022/07/25 11:05:13;;;;;;;;;;;;;;;22.40;57.72;99411.34;5055706;28;19924;-61
2022/07/25 11:07:57;;;;;;;;;;;;;;;22.41;57.88;99413.06;5056630;28;19923;-62
2022/07/25 11:10:49;;;;;;;;;;;;;;;22.42;57.92;99408.69;5056615;28;19970;-61
2022/07/25 11:13:37;;;;;;;;;;;;;;;22.44;58.05;99407.69;5054884;28;19939;-61
2022/07/25 11:16:25;;;;;;;;;;;;;;;22.45;57.81;99417.34;5055477;28;19923;-61
2022/07/25 11:19:26;;;;;;;;;;;;;;;22.44;57.96;99415.63;5055279;28;19963;-61
2022/07/25 11:22:10;;;;;;;;;;;;;;;22.45;57.90;99421.75;5055218;28;20009;-61
2022/07/25 11:24:57;;;;;;;;;;;;;;;22.44;58.09;99423.53;5055811;28;19923;-61
2022/07/25 11:27:41;;;;;;;;;;;;;;;22.44;58.03;99428.81;5055739;28;19978;-62
2022/07/25 11:30:29;;;;;;;;;;;;;;;22.44;57.94;99420.91;5055140;28;20429;-63
2022/07/25 11:33:15;;;;;;;;;;;;;;;22.46;57.88;99419.06;5055153;28;19970;-63
2022/07/25 11:35:59;;;;;;;;;;;;;;;22.46;57.83;99431.38;5054757;28;19951;-61
2022/07/25 11:38:46;;;;;;;;;;;;;;;22.47;58.06;99433.09;5055656;28;19928;-61
2022/07/25 11:41:30;;;;;;;;;;;;;;;22.46;57.83;99440.19;5055597;28;19924;-61
2022/07/25 11:44:14;;;;;;;;;;;;;;;22.47;58.07;99441.03;5054935;28;19923;-60
2022/07/25 11:47:01;;;;;;;;;;;;;;;22.46;57.89;99442.81;5055550;28;20291;-61
2022/07/25 11:49:46;;;;;;;;;;;;;;;22.48;58.04;99442.75;5054565;28;19961;-61
2022/07/25 11:52:35;;;;;;;;;;;;;;;22.47;57.83;99435.75;5055710;28;19924;-61
2022/07/25 11:55:26;;;;;;;;;;;;;;;22.49;57.95;99440.06;5055347;28;20318;-61
2022/07/25 11:58:11;;;;;;;;;;;;;;;22.48;57.93;99438.34;5055710;28;19963;-61
2022/07/25 12:00:56;;;;;;;;;;;;;;;22.48;57.77;99433.06;5055486;28;19928;-61
2022/07/25 12:03:40;;;;;;;;;;;;;;;22.49;57.88;99434.78;5055496;28;19939;-61
2022/07/25 12:06:28;;;;;;;;;;;;;;;22.50;57.98;99444.38;5054782;28;19924;-62
2022/07/25 12:09:16;;;;;;;;;;;;;;;22.49;57.81;99440.06;5053883;28;19923;-61
2022/07/25 12:12:02;;;;;;;;;;;;;;;22.50;57.97;99443.53;5054389;28;20287;-60
2022/07/25 12:14:46;;;;;;;;;;;;;;;22.50;57.86;99444.38;5054128;28;19924;-62
2022/07/25 12:17:29;;;;;;;;;;;;;;;22.50;58.01;99439.09;5054019;28;20386;-62
2022/07/25 12:20:18;;;;;;;;;;;;;;;22.50;58.00;99439.09;5055299;28;20409;-62
2022/07/25 12:23:05;;;;;;;;;;;;;;;22.53;57.77;99447.81;5054372;28;19924;-62
2022/07/25 12:25:49;;;;;;;;;;;;;;;22.54;57.85;99438.97;5054088;28;19924;-62
2022/07/25 12:28:33;;;;;;;;;;;;;;;22.55;57.78;99444.19;5054666;28;19951;-62
2022/07/25 12:31:17;;;;;;;;;;;;;;;22.56;57.97;99445.03;5054697;28;19924;-63
2022/07/25 12:34:02;;;;;;;;;;;;;;;22.56;57.92;99445.91;5053702;28;20019;-62
2022/07/25 12:36:46;;;;;;;;;;;;;;;22.55;57.98;99451.25;5054732;28;19928;-63
2022/07/25 12:39:30;;;;;;;;;;;;;;;22.55;57.91;99456.53;5053762;28;19924;-61
2022/07/25 12:42:13;;;;;;;;;;;;;;;22.54;57.76;99468.00;5054455;28;19930;-62
2022/07/25 12:44:57;;;;;;;;;;;;;;;22.53;57.76;99459.25;5054558;28;19923;-62
2022/07/25 12:47:42;;;;;;;;;;;;;;;22.51;57.53;99459.28;5053718;28;20322;-63
2022/07/25 12:50:26;;;;;;;;;;;;;;;22.51;57.68;99447.88;5053705;28;19924;-61
2022/07/25 12:53:12;;;;;;;;;;;;;;;22.51;57.74;99459.28;5054376;28;20319;-61
2022/07/25 12:55:58;;;;;;;;;;;;;;;22.51;57.73;99469.84;5054142;28;19944;-62
2022/07/25 12:58:42;;;;;;;;;;;;;;;22.53;57.63;99468.94;5053856;28;19967;-62
2022/07/25 13:01:26;;;;;;;;;;;;;;;22.54;57.89;99475.94;5054026;28;19927;-63
2022/07/25 13:04:10;;;;;;;;;;;;;;;22.54;57.72;99491.78;5054372;28;19923;-62
2022/07/25 13:06:54;;;;;;;;;;;;;;;22.50;57.82;99496.34;5054415;28;19923;-61
2022/07/25 13:09:38;;;;;;;;;;;;;;;22.50;57.67;99514.81;5053589;28;19955;-63
2022/07/25 13:12:22;;;;;;;;;;;;;;;22.46;57.83;99503.53;5052989;28;20291;-60
2022/07/25 13:15:07;;;;;;;;;;;;;;;22.46;57.75;99515.84;5052907;28;20424;-63
2022/07/25 13:17:51;;;;;;;;;;;;;;;22.42;57.91;99509.00;5053287;28;19963;-60
2022/07/25 13:20:36;;;;;;;;;;;;;;;22.41;57.85;99509.91;5054181;28;19923;-62
2022/07/25 13:23:20;;;;;;;;;;;;;;;22.40;57.86;99509.03;5054134;28;19962;-63
2022/07/25 13:26:04;;;;;;;;;;;;;;;22.36;57.91;99518.84;5054214;28;20019;-61
2022/07/25 13:28:48;;;;;;;;;;;;;;;22.35;58.05;99513.63;5053655;28;19966;-61
2022/07/25 13:31:31;;;;;;;;;;;;;;;22.33;57.97;99516.34;5054039;28;19932;-61
2022/07/25 13:34:15;;;;;;;;;;;;;;;22.34;58.21;99520.69;5053558;28;19969;-61
2022/07/25 13:36:59;;;;;;;;;;;;;;;22.32;58.01;99519.06;5058697;28;19939;-61
2022/07/25 13:39:43;;;;;;;;;;;;;;;22.32;58.18;99527.81;5060697;28;19923;-61
2022/07/25 13:42:27;;;;;;;;;;;;;;;22.33;58.20;99528.69;5060973;28;19927;-61
2022/07/25 13:45:11;;;;;;;;;;;;;;;22.31;58.14;99522.63;5059406;28;20338;-63
2022/07/25 13:47:55;;;;;;;;;;;;;;;22.30;58.05;99520.91;5059402;28;20291;-62
2022/07/25 13:50:39;;;;;;;;;;;;;;;22.30;58.28;99527.00;5060578;28;19931;-63
2022/07/25 13:53:26;;;;;;;;;;;;;;;22.29;58.10;99519.19;5060376;28;20338;-63
2022/07/25 13:56:11;;;;;;;;;;;;;;;22.29;57.84;99532.38;5059662;28;19923;-62
2022/07/25 13:58:55;;;;;;;;;;;;;;;22.30;58.26;99534.94;5059523;28;20004;-63
2022/07/25 14:01:39;;;;;;;;;;;;;;;22.30;57.92;99534.94;5060232;28;19962;-61
2022/07/25 14:04:23;;;;;;;;;;;;;;;22.30;58.13;99528.81;5060404;28;19974;-60
2022/07/25 14:07:09;;;;;;;;;;;;;;;22.32;57.98;99537.53;5060510;28;19939;-62
2022/07/25 14:09:53;;;;;;;;;;;;;;;22.34;58.11;99519.84;5059500;28;19924;-63
2022/07/25 14:12:38;;;;;;;;;;;;;;;22.33;57.97;99518.97;5060203;28;19923;-63
2022/07/25 14:15:22;;;;;;;;;;;;;;;22.34;57.94;99517.22;5060128;28;20381;-62
2022/07/25 14:18:07;;;;;;;;;;;;;;;22.33;57.87;99505.78;5060428;28;19970;-60
2022/07/25 14:20:51;;;;;;;;;;;;;;;22.33;57.97;99526.91;5060251;28;20379;-61
2022/07/25 14:23:35;;;;;;;;;;;;;;;22.32;57.75;99522.53;5059982;28;19924;-63